sensor_id;sensor_type;location;lat;lon;timestamp;P1;durP1;ratioP1;P2;durP2;ratioP2
75437;SDS011;64015;49.392;15.582;2023-01-19T00:00:08;14.88;;;6.78;;
75437;SDS011;64015;49.392;15.582;2023-01-19T00:02:55;14.60;;;6.38;;
75437;SDS011;64015;49.392;15.582;2023-01-19T00:05:20;16.33;;;6.53;;
75437;SDS011;64015;49.392;15.582;2023-01-19T00:07:46;12.75;;;5.63;;
75437;SDS011;64015;49.392;15.582;2023-01-19T00:10:12;14.30;;;7.00;;
75437;SDS011;64015;49.392;15.582;2023-01-19T00:12:38;14.25;;;6.75;;
75437;SDS011;64015;49.392;15.582;2023-01-19T00:15:03;13.00;;;5.57;;
75437;SDS011;64015;49.392;15.582;2023-01-19T00:17:30;12.35;;;6.50;;
75437;SDS011;64015;49.392;15.582;2023-01-19T00:19:55;12.02;;;5.85;;
75437;SDS011;64015;49.392;15.582;2023-01-19T00:22:21;16.35;;;7.07;;
75437;SDS011;64015;49.392;15.582;2023-01-19T00:24:47;15.57;;;6.18;;
75437;SDS011;64015;49.392;15.582;2023-01-19T00:27:13;12.90;;;6.25;;
75437;SDS011;64015;49.392;15.582;2023-01-19T00:29:38;14.55;;;6.40;;
75437;SDS011;64015;49.392;15.582;2023-01-19T00:32:04;14.35;;;6.40;;
75437;SDS011;64015;49.392;15.582;2023-01-19T00:34:30;13.55;;;7.03;;
75437;SDS011;64015;49.392;15.582;2023-01-19T00:37:10;16.80;;;6.47;;
75437;SDS011;64015;49.392;15.582;2023-01-19T00:39:36;17.23;;;7.60;;
75437;SDS011;64015;49.392;15.582;2023-01-19T00:42:02;15.82;;;6.78;;
75437;SDS011;64015;49.392;15.582;2023-01-19T00:44:46;14.77;;;6.50;;
75437;SDS011;64015;49.392;15.582;2023-01-19T00:47:12;15.23;;;6.72;;
75437;SDS011;64015;49.392;15.582;2023-01-19T00:49:38;13.05;;;6.10;;
75437;SDS011;64015;49.392;15.582;2023-01-19T00:52:04;17.88;;;6.68;;
75437;SDS011;64015;49.392;15.582;2023-01-19T00:54:30;16.65;;;6.22;;
75437;SDS011;64015;49.392;15.582;2023-01-19T00:56:56;12.63;;;5.75;;
75437;SDS011;64015;49.392;15.582;2023-01-19T00:59:21;15.55;;;6.15;;
75437;SDS011;64015;49.392;15.582;2023-01-19T01:01:47;13.43;;;6.53;;
75437;SDS011;64015;49.392;15.582;2023-01-19T01:04:13;18.55;;;7.65;;
75437;SDS011;64015;49.392;15.582;2023-01-19T01:06:39;15.77;;;6.25;;
75437;SDS011;64015;49.392;15.582;2023-01-19T01:09:04;15.63;;;6.70;;
75437;SDS011;64015;49.392;15.582;2023-01-19T01:11:37;16.38;;;6.80;;
75437;SDS011;64015;49.392;15.582;2023-01-19T01:14:06;14.82;;;6.38;;
75437;SDS011;64015;49.392;15.582;2023-01-19T01:16:33;13.52;;;6.18;;
75437;SDS011;64015;49.392;15.582;2023-01-19T01:18:59;15.40;;;6.45;;
75437;SDS011;64015;49.392;15.582;2023-01-19T01:21:25;14.50;;;6.47;;
75437;SDS011;64015;49.392;15.582;2023-01-19T01:23:50;13.95;;;6.85;;
75437;SDS011;64015;49.392;15.582;2023-01-19T01:26:16;15.65;;;7.63;;
75437;SDS011;64015;49.392;15.582;2023-01-19T01:29:00;15.85;;;7.13;;
75437;SDS011;64015;49.392;15.582;2023-01-19T01:31:26;16.95;;;7.38;;
75437;SDS011;64015;49.392;15.582;2023-01-19T01:33:52;15.63;;;6.80;;
75437;SDS011;64015;49.392;15.582;2023-01-19T01:36:17;15.75;;;6.93;;
75437;SDS011;64015;49.392;15.582;2023-01-19T01:38:43;12.45;;;6.28;;
75437;SDS011;64015;49.392;15.582;2023-01-19T01:41:09;13.05;;;5.88;;
75437;SDS011;64015;49.392;15.582;2023-01-19T01:46:15;15.05;;;6.75;;
75437;SDS011;64015;49.392;15.582;2023-01-19T01:49:04;12.30;;;5.55;;
75437;SDS011;64015;49.392;15.582;2023-01-19T01:51:39;10.98;;;5.47;;
75437;SDS011;64015;49.392;15.582;2023-01-19T01:56:42;11.82;;;5.25;;
75437;SDS011;64015;49.392;15.582;2023-01-19T01:59:11;14.30;;;6.07;;
75437;SDS011;64015;49.392;15.582;2023-01-19T02:01:52;13.13;;;5.40;;
75437;SDS011;64015;49.392;15.582;2023-01-19T02:04:39;13.70;;;5.75;;
75437;SDS011;64015;49.392;15.582;2023-01-19T02:07:16;12.63;;;5.32;;
75437;SDS011;64015;49.392;15.582;2023-01-19T02:10:09;11.13;;;5.00;;
75437;SDS011;64015;49.392;15.582;2023-01-19T02:12:54;10.85;;;4.57;;
75437;SDS011;64015;49.392;15.582;2023-01-19T02:15:39;9.32;;;3.97;;
75437;SDS011;64015;49.392;15.582;2023-01-19T02:18:05;8.13;;;4.30;;
75437;SDS011;64015;49.392;15.582;2023-01-19T02:20:30;9.60;;;4.47;;
75437;SDS011;64015;49.392;15.582;2023-01-19T02:23:00;8.60;;;3.97;;
75437;SDS011;64015;49.392;15.582;2023-01-19T02:25:31;5.78;;;3.35;;
75437;SDS011;64015;49.392;15.582;2023-01-19T02:27:57;7.80;;;3.75;;
75437;SDS011;64015;49.392;15.582;2023-01-19T02:30:24;8.25;;;3.72;;
75437;SDS011;64015;49.392;15.582;2023-01-19T02:32:50;6.88;;;3.58;;
75437;SDS011;64015;49.392;15.582;2023-01-19T02:35:16;7.25;;;3.45;;
75437;SDS011;64015;49.392;15.582;2023-01-19T02:37:43;9.15;;;3.75;;
75437;SDS011;64015;49.392;15.582;2023-01-19T02:40:10;7.85;;;3.70;;
75437;SDS011;64015;49.392;15.582;2023-01-19T02:42:40;7.20;;;3.95;;
75437;SDS011;64015;49.392;15.582;2023-01-19T02:45:09;8.57;;;4.13;;
75437;SDS011;64015;49.392;15.582;2023-01-19T02:47:39;8.35;;;3.40;;
75437;SDS011;64015;49.392;15.582;2023-01-19T02:59:37;8.68;;;3.67;;
75437;SDS011;64015;49.392;15.582;2023-01-19T03:15:00;8.43;;;4.15;;
75437;SDS011;64015;49.392;15.582;2023-01-19T03:17:35;8.38;;;4.60;;
75437;SDS011;64015;49.392;15.582;2023-01-19T03:20:01;7.97;;;3.75;;
75437;SDS011;64015;49.392;15.582;2023-01-19T03:22:30;7.05;;;3.65;;
75437;SDS011;64015;49.392;15.582;2023-01-19T03:24:57;9.07;;;4.25;;
75437;SDS011;64015;49.392;15.582;2023-01-19T03:27:25;8.90;;;4.60;;
75437;SDS011;64015;49.392;15.582;2023-01-19T03:30:00;9.25;;;4.38;;
75437;SDS011;64015;49.392;15.582;2023-01-19T03:32:33;10.80;;;3.97;;
75437;SDS011;64015;49.392;15.582;2023-01-19T03:35:02;7.70;;;4.03;;
75437;SDS011;64015;49.392;15.582;2023-01-19T03:37:33;9.23;;;4.30;;
75437;SDS011;64015;49.392;15.582;2023-01-19T03:40:03;8.10;;;3.80;;
75437;SDS011;64015;49.392;15.582;2023-01-19T03:42:30;8.20;;;4.28;;
75437;SDS011;64015;49.392;15.582;2023-01-19T03:44:56;8.13;;;3.83;;
75437;SDS011;64015;49.392;15.582;2023-01-19T03:47:25;9.23;;;3.80;;
75437;SDS011;64015;49.392;15.582;2023-01-19T03:49:52;7.85;;;3.90;;
75437;SDS011;64015;49.392;15.582;2023-01-19T03:52:27;9.32;;;4.10;;
75437;SDS011;64015;49.392;15.582;2023-01-19T03:54:54;8.60;;;4.13;;
75437;SDS011;64015;49.392;15.582;2023-01-19T03:57:20;8.13;;;4.43;;
75437;SDS011;64015;49.392;15.582;2023-01-19T03:59:46;11.13;;;4.32;;
75437;SDS011;64015;49.392;15.582;2023-01-19T04:02:12;6.93;;;3.55;;
75437;SDS011;64015;49.392;15.582;2023-01-19T04:04:38;8.90;;;4.40;;
75437;SDS011;64015;49.392;15.582;2023-01-19T04:07:04;10.27;;;3.85;;
75437;SDS011;64015;49.392;15.582;2023-01-19T04:09:30;9.55;;;4.88;;
75437;SDS011;64015;49.392;15.582;2023-01-19T04:11:55;8.55;;;4.53;;
75437;SDS011;64015;49.392;15.582;2023-01-19T04:14:21;8.65;;;4.10;;
75437;SDS011;64015;49.392;15.582;2023-01-19T04:16:47;10.93;;;4.50;;
75437;SDS011;64015;49.392;15.582;2023-01-19T04:19:13;9.10;;;4.57;;
75437;SDS011;64015;49.392;15.582;2023-01-19T04:21:38;9.82;;;4.80;;
75437;SDS011;64015;49.392;15.582;2023-01-19T04:24:04;7.63;;;4.15;;
75437;SDS011;64015;49.392;15.582;2023-01-19T04:26:30;8.68;;;4.65;;
75437;SDS011;64015;49.392;15.582;2023-01-19T04:28:56;11.10;;;5.30;;
75437;SDS011;64015;49.392;15.582;2023-01-19T04:31:22;9.93;;;4.93;;
75437;SDS011;64015;49.392;15.582;2023-01-19T04:33:48;7.38;;;4.40;;
75437;SDS011;64015;49.392;15.582;2023-01-19T04:36:32;9.63;;;4.15;;
75437;SDS011;64015;49.392;15.582;2023-01-19T04:38:58;7.28;;;3.72;;
75437;SDS011;64015;49.392;15.582;2023-01-19T04:41:23;6.80;;;3.13;;
75437;SDS011;64015;49.392;15.582;2023-01-19T04:43:49;7.82;;;4.15;;
75437;SDS011;64015;49.392;15.582;2023-01-19T04:46:14;10.38;;;5.07;;
75437;SDS011;64015;49.392;15.582;2023-01-19T04:48:40;5.57;;;2.83;;
75437;SDS011;64015;49.392;15.582;2023-01-19T04:51:06;5.90;;;2.70;;
75437;SDS011;64015;49.392;15.582;2023-01-19T04:53:33;7.80;;;3.90;;
75437;SDS011;64015;49.392;15.582;2023-01-19T04:55:58;6.47;;;3.50;;
75437;SDS011;64015;49.392;15.582;2023-01-19T04:58:25;5.18;;;2.67;;
75437;SDS011;64015;49.392;15.582;2023-01-19T05:00:51;7.45;;;3.20;;
75437;SDS011;64015;49.392;15.582;2023-01-19T05:03:17;5.47;;;2.58;;
75437;SDS011;64015;49.392;15.582;2023-01-19T05:05:43;5.63;;;3.10;;
75437;SDS011;64015;49.392;15.582;2023-01-19T05:08:10;5.10;;;2.78;;
75437;SDS011;64015;49.392;15.582;2023-01-19T05:10:36;4.45;;;2.30;;
75437;SDS011;64015;49.392;15.582;2023-01-19T05:13:02;4.93;;;2.75;;
75437;SDS011;64015;49.392;15.582;2023-01-19T05:15:28;4.63;;;2.40;;
75437;SDS011;64015;49.392;15.582;2023-01-19T05:17:54;5.82;;;2.90;;
75437;SDS011;64015;49.392;15.582;2023-01-19T05:20:22;6.07;;;2.63;;
75437;SDS011;64015;49.392;15.582;2023-01-19T05:22:49;6.68;;;2.80;;
75437;SDS011;64015;49.392;15.582;2023-01-19T05:25:15;9.02;;;2.97;;
75437;SDS011;64015;49.392;15.582;2023-01-19T05:27:42;4.95;;;2.83;;
75437;SDS011;64015;49.392;15.582;2023-01-19T05:30:09;5.95;;;2.83;;
75437;SDS011;64015;49.392;15.582;2023-01-19T05:32:35;8.20;;;3.78;;
75437;SDS011;64015;49.392;15.582;2023-01-19T05:35:01;5.93;;;2.67;;
75437;SDS011;64015;49.392;15.582;2023-01-19T05:37:27;5.93;;;3.13;;
75437;SDS011;64015;49.392;15.582;2023-01-19T05:39:52;5.95;;;3.15;;
75437;SDS011;64015;49.392;15.582;2023-01-19T05:42:18;6.53;;;3.10;;
75437;SDS011;64015;49.392;15.582;2023-01-19T05:44:43;7.40;;;3.08;;
75437;SDS011;64015;49.392;15.582;2023-01-19T05:47:09;6.88;;;3.35;;
75437;SDS011;64015;49.392;15.582;2023-01-19T05:49:35;4.78;;;2.42;;
75437;SDS011;64015;49.392;15.582;2023-01-19T05:52:00;5.82;;;2.70;;
75437;SDS011;64015;49.392;15.582;2023-01-19T05:54:26;6.03;;;2.90;;
75437;SDS011;64015;49.392;15.582;2023-01-19T05:56:52;7.25;;;3.65;;
75437;SDS011;64015;49.392;15.582;2023-01-19T05:59:17;6.28;;;3.75;;
75437;SDS011;64015;49.392;15.582;2023-01-19T06:01:52;9.75;;;4.13;;
75437;SDS011;64015;49.392;15.582;2023-01-19T06:04:18;9.57;;;4.00;;
75437;SDS011;64015;49.392;15.582;2023-01-19T06:06:48;5.95;;;2.88;;
75437;SDS011;64015;49.392;15.582;2023-01-19T06:09:14;7.45;;;3.17;;
75437;SDS011;64015;49.392;15.582;2023-01-19T06:11:39;5.65;;;2.75;;
75437;SDS011;64015;49.392;15.582;2023-01-19T06:14:05;7.57;;;3.25;;
75437;SDS011;64015;49.392;15.582;2023-01-19T06:16:31;6.75;;;3.13;;
75437;SDS011;64015;49.392;15.582;2023-01-19T06:18:56;5.85;;;2.75;;
75437;SDS011;64015;49.392;15.582;2023-01-19T06:21:22;6.03;;;3.33;;
75437;SDS011;64015;49.392;15.582;2023-01-19T06:23:48;7.18;;;3.70;;
75437;SDS011;64015;49.392;15.582;2023-01-19T06:26:14;9.27;;;4.18;;
75437;SDS011;64015;49.392;15.582;2023-01-19T06:28:39;11.50;;;4.63;;
75437;SDS011;64015;49.392;15.582;2023-01-19T06:31:05;8.27;;;3.05;;
75437;SDS011;64015;49.392;15.582;2023-01-19T06:33:30;7.55;;;3.85;;
75437;SDS011;64015;49.392;15.582;2023-01-19T06:35:56;10.15;;;4.75;;
75437;SDS011;64015;49.392;15.582;2023-01-19T06:38:22;6.78;;;3.03;;
75437;SDS011;64015;49.392;15.582;2023-01-19T06:40:51;4.97;;;2.53;;
75437;SDS011;64015;49.392;15.582;2023-01-19T06:43:18;9.95;;;2.72;;
75437;SDS011;64015;49.392;15.582;2023-01-19T06:45:45;9.30;;;3.55;;
75437;SDS011;64015;49.392;15.582;2023-01-19T06:48:11;6.20;;;2.67;;
75437;SDS011;64015;49.392;15.582;2023-01-19T06:50:37;5.38;;;2.53;;
75437;SDS011;64015;49.392;15.582;2023-01-19T06:53:02;3.95;;;2.10;;
75437;SDS011;64015;49.392;15.582;2023-01-19T06:55:28;6.45;;;2.97;;
75437;SDS011;64015;49.392;15.582;2023-01-19T06:57:57;5.32;;;2.40;;
75437;SDS011;64015;49.392;15.582;2023-01-19T07:00:23;7.45;;;2.72;;
75437;SDS011;64015;49.392;15.582;2023-01-19T07:02:50;4.95;;;2.95;;
75437;SDS011;64015;49.392;15.582;2023-01-19T07:05:16;5.07;;;2.53;;
75437;SDS011;64015;49.392;15.582;2023-01-19T07:07:42;5.65;;;2.55;;
75437;SDS011;64015;49.392;15.582;2023-01-19T07:10:09;5.45;;;2.65;;
75437;SDS011;64015;49.392;15.582;2023-01-19T07:12:36;7.40;;;2.97;;
75437;SDS011;64015;49.392;15.582;2023-01-19T07:15:03;6.03;;;2.85;;
75437;SDS011;64015;49.392;15.582;2023-01-19T07:17:30;4.63;;;2.45;;
75437;SDS011;64015;49.392;15.582;2023-01-19T07:19:55;6.68;;;2.95;;
75437;SDS011;64015;49.392;15.582;2023-01-19T07:22:21;6.40;;;2.63;;
75437;SDS011;64015;49.392;15.582;2023-01-19T07:24:47;7.90;;;2.50;;
75437;SDS011;64015;49.392;15.582;2023-01-19T07:27:12;5.07;;;2.50;;
75437;SDS011;64015;49.392;15.582;2023-01-19T07:29:39;8.45;;;3.10;;
75437;SDS011;64015;49.392;15.582;2023-01-19T07:32:04;3.42;;;2.10;;
75437;SDS011;64015;49.392;15.582;2023-01-19T07:34:30;9.20;;;3.10;;
75437;SDS011;64015;49.392;15.582;2023-01-19T07:36:56;5.57;;;2.67;;
75437;SDS011;64015;49.392;15.582;2023-01-19T07:39:22;5.13;;;2.80;;
75437;SDS011;64015;49.392;15.582;2023-01-19T07:41:47;6.47;;;3.30;;
75437;SDS011;64015;49.392;15.582;2023-01-19T07:44:13;5.50;;;2.88;;
75437;SDS011;64015;49.392;15.582;2023-01-19T07:46:39;8.68;;;3.17;;
75437;SDS011;64015;49.392;15.582;2023-01-19T07:49:05;6.30;;;2.83;;
75437;SDS011;64015;49.392;15.582;2023-01-19T07:51:31;4.55;;;2.30;;
75437;SDS011;64015;49.392;15.582;2023-01-19T07:53:57;2.85;;;1.77;;
75437;SDS011;64015;49.392;15.582;2023-01-19T07:56:22;5.10;;;2.70;;
75437;SDS011;64015;49.392;15.582;2023-01-19T07:58:49;5.63;;;2.40;;
75437;SDS011;64015;49.392;15.582;2023-01-19T08:01:16;5.25;;;2.70;;
75437;SDS011;64015;49.392;15.582;2023-01-19T08:03:42;7.00;;;2.42;;
75437;SDS011;64015;49.392;15.582;2023-01-19T08:06:21;5.20;;;2.30;;
75437;SDS011;64015;49.392;15.582;2023-01-19T08:08:48;7.55;;;4.18;;
75437;SDS011;64015;49.392;15.582;2023-01-19T08:11:14;4.65;;;2.90;;
75437;SDS011;64015;49.392;15.582;2023-01-19T08:13:40;6.80;;;3.65;;
75437;SDS011;64015;49.392;15.582;2023-01-19T08:16:08;7.95;;;3.50;;
75437;SDS011;64015;49.392;15.582;2023-01-19T08:18:34;7.63;;;3.30;;
75437;SDS011;64015;49.392;15.582;2023-01-19T08:20:59;7.28;;;2.92;;
75437;SDS011;64015;49.392;15.582;2023-01-19T08:23:26;8.63;;;3.53;;
75437;SDS011;64015;49.392;15.582;2023-01-19T08:25:52;6.32;;;3.70;;
75437;SDS011;64015;49.392;15.582;2023-01-19T08:28:18;9.10;;;4.10;;
75437;SDS011;64015;49.392;15.582;2023-01-19T08:30:44;7.50;;;3.75;;
75437;SDS011;64015;49.392;15.582;2023-01-19T08:33:12;8.35;;;3.80;;
75437;SDS011;64015;49.392;15.582;2023-01-19T08:35:47;5.80;;;3.10;;
75437;SDS011;64015;49.392;15.582;2023-01-19T08:38:14;7.05;;;3.05;;
75437;SDS011;64015;49.392;15.582;2023-01-19T08:40:41;6.45;;;3.35;;
75437;SDS011;64015;49.392;15.582;2023-01-19T08:43:11;9.02;;;3.33;;
75437;SDS011;64015;49.392;15.582;2023-01-19T08:45:39;9.75;;;4.28;;
75437;SDS011;64015;49.392;15.582;2023-01-19T08:48:11;6.38;;;3.20;;
75437;SDS011;64015;49.392;15.582;2023-01-19T08:50:37;8.07;;;3.30;;
75437;SDS011;64015;49.392;15.582;2023-01-19T08:53:03;6.22;;;3.95;;
75437;SDS011;64015;49.392;15.582;2023-01-19T08:55:34;7.47;;;3.75;;
75437;SDS011;64015;49.392;15.582;2023-01-19T08:58:01;6.03;;;3.05;;
75437;SDS011;64015;49.392;15.582;2023-01-19T09:00:29;6.97;;;3.40;;
75437;SDS011;64015;49.392;15.582;2023-01-19T09:02:57;7.97;;;3.20;;
75437;SDS011;64015;49.392;15.582;2023-01-19T09:05:23;7.65;;;4.25;;
75437;SDS011;64015;49.392;15.582;2023-01-19T09:07:49;7.47;;;3.20;;
75437;SDS011;64015;49.392;15.582;2023-01-19T09:10:16;7.93;;;3.25;;
75437;SDS011;64015;49.392;15.582;2023-01-19T09:15:10;8.68;;;2.67;;
75437;SDS011;64015;49.392;15.582;2023-01-19T09:17:38;7.15;;;2.75;;
75437;SDS011;64015;49.392;15.582;2023-01-19T09:20:08;9.27;;;3.83;;
75437;SDS011;64015;49.392;15.582;2023-01-19T09:22:34;5.95;;;2.75;;
75437;SDS011;64015;49.392;15.582;2023-01-19T09:25:00;7.85;;;3.40;;
75437;SDS011;64015;49.392;15.582;2023-01-19T09:27:26;7.90;;;3.15;;
75437;SDS011;64015;49.392;15.582;2023-01-19T09:29:51;8.18;;;3.58;;
75437;SDS011;64015;49.392;15.582;2023-01-19T09:32:18;5.13;;;2.72;;
75437;SDS011;64015;49.392;15.582;2023-01-19T09:34:45;6.10;;;2.70;;
75437;SDS011;64015;49.392;15.582;2023-01-19T09:37:11;6.88;;;3.35;;
75437;SDS011;64015;49.392;15.582;2023-01-19T09:39:37;7.82;;;3.50;;
75437;SDS011;64015;49.392;15.582;2023-01-19T09:42:10;6.82;;;2.97;;
75437;SDS011;64015;49.392;15.582;2023-01-19T09:44:39;7.50;;;3.38;;
75437;SDS011;64015;49.392;15.582;2023-01-19T09:47:14;6.15;;;2.88;;
75437;SDS011;64015;49.392;15.582;2023-01-19T09:49:44;6.10;;;2.55;;
75437;SDS011;64015;49.392;15.582;2023-01-19T09:52:15;5.75;;;2.85;;
75437;SDS011;64015;49.392;15.582;2023-01-19T09:54:46;6.05;;;2.78;;
75437;SDS011;64015;49.392;15.582;2023-01-19T09:57:18;5.28;;;2.15;;
75437;SDS011;64015;49.392;15.582;2023-01-19T09:59:45;5.40;;;2.55;;
75437;SDS011;64015;49.392;15.582;2023-01-19T10:02:20;5.70;;;3.08;;
75437;SDS011;64015;49.392;15.582;2023-01-19T10:18:18;8.35;;;3.50;;
75437;SDS011;64015;49.392;15.582;2023-01-19T10:21:05;8.45;;;3.35;;
75437;SDS011;64015;49.392;15.582;2023-01-19T10:26:07;7.85;;;3.05;;
75437;SDS011;64015;49.392;15.582;2023-01-19T10:28:54;5.70;;;3.13;;
75437;SDS011;64015;49.392;15.582;2023-01-19T10:31:26;6.82;;;2.88;;
75437;SDS011;64015;49.392;15.582;2023-01-19T10:33:52;8.43;;;3.30;;
75437;SDS011;64015;49.392;15.582;2023-01-19T10:36:20;7.50;;;3.17;;
75437;SDS011;64015;49.392;15.582;2023-01-19T10:38:50;8.57;;;3.30;;
75437;SDS011;64015;49.392;15.582;2023-01-19T10:41:17;8.32;;;3.03;;
75437;SDS011;64015;49.392;15.582;2023-01-19T10:43:46;6.75;;;2.92;;
75437;SDS011;64015;49.392;15.582;2023-01-19T10:46:15;9.05;;;3.67;;
75437;SDS011;64015;49.392;15.582;2023-01-19T10:48:47;7.40;;;2.88;;
75437;SDS011;64015;49.392;15.582;2023-01-19T10:51:14;6.32;;;2.70;;
75437;SDS011;64015;49.392;15.582;2023-01-19T10:53:51;6.07;;;2.97;;
75437;SDS011;64015;49.392;15.582;2023-01-19T10:56:20;6.03;;;3.00;;
75437;SDS011;64015;49.392;15.582;2023-01-19T10:58:52;7.55;;;2.88;;
75437;SDS011;64015;49.392;15.582;2023-01-19T11:01:22;8.35;;;2.60;;
75437;SDS011;64015;49.392;15.582;2023-01-19T11:03:50;5.18;;;3.08;;
75437;SDS011;64015;49.392;15.582;2023-01-19T11:08:45;4.80;;;2.53;;
75437;SDS011;64015;49.392;15.582;2023-01-19T11:11:12;4.95;;;2.35;;
75437;SDS011;64015;49.392;15.582;2023-01-19T11:13:39;6.63;;;2.63;;
75437;SDS011;64015;49.392;15.582;2023-01-19T11:16:25;7.68;;;3.35;;
75437;SDS011;64015;49.392;15.582;2023-01-19T11:18:54;7.03;;;3.22;;
75437;SDS011;64015;49.392;15.582;2023-01-19T11:21:22;5.90;;;2.05;;
75437;SDS011;64015;49.392;15.582;2023-01-19T11:23:51;5.75;;;2.78;;
75437;SDS011;64015;49.392;15.582;2023-01-19T11:26:24;5.13;;;2.45;;
75437;SDS011;64015;49.392;15.582;2023-01-19T11:28:53;8.48;;;2.50;;
75437;SDS011;64015;49.392;15.582;2023-01-19T11:34:36;5.63;;;2.85;;
75437;SDS011;64015;49.392;15.582;2023-01-19T11:37:20;6.00;;;3.05;;
75437;SDS011;64015;49.392;15.582;2023-01-19T11:39:57;6.03;;;2.88;;
75437;SDS011;64015;49.392;15.582;2023-01-19T11:42:24;8.88;;;3.80;;
75437;SDS011;64015;49.392;15.582;2023-01-19T11:52:52;7.40;;;3.60;;
75437;SDS011;64015;49.392;15.582;2023-01-19T11:58:09;9.35;;;3.65;;
75437;SDS011;64015;49.392;15.582;2023-01-19T12:00:50;7.13;;;3.53;;
75437;SDS011;64015;49.392;15.582;2023-01-19T12:03:27;8.70;;;4.32;;
75437;SDS011;64015;49.392;15.582;2023-01-19T12:08:30;9.07;;;4.07;;
75437;SDS011;64015;49.392;15.582;2023-01-19T12:11:00;8.52;;;4.00;;
75437;SDS011;64015;49.392;15.582;2023-01-19T12:13:27;9.23;;;3.40;;
75437;SDS011;64015;49.392;15.582;2023-01-19T12:18:32;9.82;;;3.80;;
75437;SDS011;64015;49.392;15.582;2023-01-19T12:21:03;8.13;;;3.88;;
75437;SDS011;64015;49.392;15.582;2023-01-19T12:28:41;5.38;;;3.25;;
75437;SDS011;64015;49.392;15.582;2023-01-19T12:31:12;9.93;;;3.70;;
75437;SDS011;64015;49.392;15.582;2023-01-19T12:33:40;9.13;;;3.13;;
75437;SDS011;64015;49.392;15.582;2023-01-19T12:39:18;7.22;;;3.75;;
75437;SDS011;64015;49.392;15.582;2023-01-19T12:41:46;6.25;;;3.33;;
75437;SDS011;64015;49.392;15.582;2023-01-19T12:46:41;21.90;;;6.97;;
75437;SDS011;64015;49.392;15.582;2023-01-19T12:51:41;8.52;;;3.63;;
75437;SDS011;64015;49.392;15.582;2023-01-19T12:54:07;11.40;;;4.60;;
75437;SDS011;64015;49.392;15.582;2023-01-19T12:56:45;6.40;;;3.10;;
75437;SDS011;64015;49.392;15.582;2023-01-19T12:59:26;6.88;;;3.33;;
75437;SDS011;64015;49.392;15.582;2023-01-19T13:13:41;8.50;;;3.38;;
75437;SDS011;64015;49.392;15.582;2023-01-19T13:18:52;12.77;;;4.63;;
75437;SDS011;64015;49.392;15.582;2023-01-19T13:24:11;9.52;;;3.88;;
75437;SDS011;64015;49.392;15.582;2023-01-19T13:26:51;8.27;;;3.80;;
75437;SDS011;64015;49.392;15.582;2023-01-19T13:29:39;6.82;;;3.28;;
75437;SDS011;64015;49.392;15.582;2023-01-19T13:32:13;12.20;;;4.95;;
75437;SDS011;64015;49.392;15.582;2023-01-19T13:34:55;8.23;;;3.55;;
75437;SDS011;64015;49.392;15.582;2023-01-19T13:37:34;9.00;;;4.20;;
75437;SDS011;64015;49.392;15.582;2023-01-19T13:40:03;7.97;;;3.28;;
75437;SDS011;64015;49.392;15.582;2023-01-19T13:42:35;8.88;;;4.28;;
75437;SDS011;64015;49.392;15.582;2023-01-19T13:45:25;9.07;;;3.88;;
75437;SDS011;64015;49.392;15.582;2023-01-19T13:47:58;7.32;;;3.20;;
75437;SDS011;64015;49.392;15.582;2023-01-19T13:50:28;6.50;;;3.25;;
75437;SDS011;64015;49.392;15.582;2023-01-19T13:52:55;7.18;;;3.60;;
75437;SDS011;64015;49.392;15.582;2023-01-19T13:55:23;7.30;;;3.20;;
75437;SDS011;64015;49.392;15.582;2023-01-19T13:57:52;7.47;;;3.25;;
75437;SDS011;64015;49.392;15.582;2023-01-19T14:00:22;10.73;;;3.83;;
75437;SDS011;64015;49.392;15.582;2023-01-19T14:05:26;10.88;;;4.10;;
75437;SDS011;64015;49.392;15.582;2023-01-19T14:08:04;8.98;;;3.38;;
75437;SDS011;64015;49.392;15.582;2023-01-19T14:10:31;7.95;;;3.75;;
75437;SDS011;64015;49.392;15.582;2023-01-19T14:13:01;9.60;;;4.05;;
75437;SDS011;64015;49.392;15.582;2023-01-19T14:15:30;9.30;;;3.20;;
75437;SDS011;64015;49.392;15.582;2023-01-19T14:18:10;7.30;;;3.38;;
75437;SDS011;64015;49.392;15.582;2023-01-19T14:34:38;11.35;;;3.97;;
75437;SDS011;64015;49.392;15.582;2023-01-19T14:37:26;9.68;;;4.10;;
75437;SDS011;64015;49.392;15.582;2023-01-19T14:42:25;7.15;;;3.72;;
75437;SDS011;64015;49.392;15.582;2023-01-19T14:45:21;10.27;;;3.75;;
75437;SDS011;64015;49.392;15.582;2023-01-19T14:47:58;7.35;;;3.65;;
75437;SDS011;64015;49.392;15.582;2023-01-19T14:50:27;8.60;;;3.67;;
75437;SDS011;64015;49.392;15.582;2023-01-19T14:53:04;7.13;;;3.58;;
75437;SDS011;64015;49.392;15.582;2023-01-19T14:58:10;6.57;;;3.35;;
75437;SDS011;64015;49.392;15.582;2023-01-19T15:00:37;9.73;;;4.20;;
75437;SDS011;64015;49.392;15.582;2023-01-19T15:03:04;9.00;;;4.57;;
75437;SDS011;64015;49.392;15.582;2023-01-19T15:05:37;8.93;;;3.95;;
75437;SDS011;64015;49.392;15.582;2023-01-19T15:08:04;11.73;;;4.53;;
75437;SDS011;64015;49.392;15.582;2023-01-19T15:10:31;14.95;;;4.50;;
75437;SDS011;64015;49.392;15.582;2023-01-19T15:12:58;13.10;;;5.85;;
75437;SDS011;64015;49.392;15.582;2023-01-19T15:15:33;11.25;;;5.53;;
75437;SDS011;64015;49.392;15.582;2023-01-19T15:18:00;18.73;;;8.60;;
75437;SDS011;64015;49.392;15.582;2023-01-19T15:20:28;14.30;;;5.00;;
75437;SDS011;64015;49.392;15.582;2023-01-19T15:22:53;14.68;;;6.07;;
75437;SDS011;64015;49.392;15.582;2023-01-19T15:25:20;10.90;;;5.65;;
75437;SDS011;64015;49.392;15.582;2023-01-19T15:27:50;12.52;;;5.07;;
75437;SDS011;64015;49.392;15.582;2023-01-19T15:30:20;13.23;;;5.53;;
75437;SDS011;64015;49.392;15.582;2023-01-19T15:32:48;13.07;;;5.50;;
75437;SDS011;64015;49.392;15.582;2023-01-19T15:35:15;15.20;;;6.10;;
75437;SDS011;64015;49.392;15.582;2023-01-19T15:37:43;14.05;;;5.88;;
75437;SDS011;64015;49.392;15.582;2023-01-19T15:40:09;11.57;;;5.55;;
75437;SDS011;64015;49.392;15.582;2023-01-19T15:42:36;12.65;;;5.53;;
75437;SDS011;64015;49.392;15.582;2023-01-19T15:45:02;11.48;;;5.57;;
75437;SDS011;64015;49.392;15.582;2023-01-19T15:47:47;12.52;;;5.68;;
75437;SDS011;64015;49.392;15.582;2023-01-19T15:50:13;9.40;;;3.67;;
75437;SDS011;64015;49.392;15.582;2023-01-19T15:52:39;12.80;;;4.70;;
75437;SDS011;64015;49.392;15.582;2023-01-19T15:55:04;9.60;;;4.38;;
75437;SDS011;64015;49.392;15.582;2023-01-19T15:57:31;12.00;;;5.15;;
75437;SDS011;64015;49.392;15.582;2023-01-19T15:59:59;11.77;;;5.55;;
75437;SDS011;64015;49.392;15.582;2023-01-19T16:02:24;14.43;;;5.20;;
75437;SDS011;64015;49.392;15.582;2023-01-19T16:04:50;9.60;;;5.40;;
75437;SDS011;64015;49.392;15.582;2023-01-19T16:07:16;11.55;;;5.72;;
75437;SDS011;64015;49.392;15.582;2023-01-19T16:09:41;9.95;;;5.43;;
75437;SDS011;64015;49.392;15.582;2023-01-19T16:12:07;13.55;;;5.68;;
75437;SDS011;64015;49.392;15.582;2023-01-19T16:14:33;11.98;;;5.45;;
75437;SDS011;64015;49.392;15.582;2023-01-19T16:16:59;10.48;;;4.65;;
75437;SDS011;64015;49.392;15.582;2023-01-19T16:19:25;10.35;;;4.70;;
75437;SDS011;64015;49.392;15.582;2023-01-19T16:21:51;12.43;;;4.70;;
75437;SDS011;64015;49.392;15.582;2023-01-19T16:24:17;12.13;;;5.93;;
75437;SDS011;64015;49.392;15.582;2023-01-19T16:26:43;12.57;;;4.82;;
75437;SDS011;64015;49.392;15.582;2023-01-19T16:29:08;12.00;;;5.28;;
75437;SDS011;64015;49.392;15.582;2023-01-19T16:31:38;10.18;;;6.05;;
75437;SDS011;64015;49.392;15.582;2023-01-19T16:34:06;15.82;;;6.15;;
75437;SDS011;64015;49.392;15.582;2023-01-19T16:36:34;14.70;;;6.88;;
75437;SDS011;64015;49.392;15.582;2023-01-19T16:39:04;14.13;;;6.15;;